createdAt,value
2022-10-19T18:14:41.931Z,22.36
2022-10-19T18:15:46.047Z,22.42
2022-10-19T18:16:50.147Z,22.43
2022-10-19T18:17:54.283Z,22.47
2022-10-19T18:18:58.409Z,22.57
2022-10-19T18:20:02.524Z,22.58
2022-10-19T18:21:06.660Z,22.58
2022-10-19T18:22:10.826Z,22.57
2022-10-19T18:23:14.942Z,22.57
2022-10-19T18:24:19.078Z,22.55
2022-10-19T18:25:36.084Z,22.53
2022-10-19T18:26:57.482Z,22.53
2022-10-19T18:28:01.662Z,22.5
2022-10-19T18:29:05.796Z,22.45
2022-10-19T18:30:09.890Z,22.43
2022-10-19T18:31:14.000Z,22.44
2022-10-19T18:32:18.132Z,22.42
2022-10-19T18:33:22.299Z,22.44
2022-10-19T18:34:26.428Z,22.43
2022-10-19T18:35:30.607Z,22.43
2022-10-19T18:36:34.751Z,22.49
2022-10-19T18:37:38.859Z,22.52
2022-10-19T18:38:42.965Z,22.56
2022-10-19T18:39:47.067Z,22.59
2022-10-19T18:40:51.175Z,22.57
2022-10-19T18:41:55.333Z,22.58
2022-10-19T18:42:59.478Z,22.57
2022-10-19T18:44:03.617Z,22.6
2022-10-19T18:45:07.732Z,22.57
2022-10-19T18:46:11.848Z,22.58
2022-10-19T18:47:15.999Z,22.52
2022-10-19T18:48:20.129Z,22.5
2022-10-19T18:49:24.343Z,22.48
2022-10-19T18:50:28.478Z,22.44
2022-10-19T18:51:32.588Z,22.42
2022-10-19T18:52:36.999Z,22.45
2022-10-19T18:53:41.293Z,22.45
2022-10-19T18:54:45.545Z,22.47
2022-10-19T18:55:49.653Z,22.49
2022-10-19T18:56:53.780Z,22.52
2022-10-19T18:57:57.903Z,22.59
2022-10-19T18:59:02.018Z,22.61
2022-10-19T19:00:06.202Z,22.66
2022-10-19T19:01:10.308Z,22.66
2022-10-19T19:02:22.058Z,22.67
2022-10-19T19:03:48.993Z,22.67
2022-10-19T19:04:53.192Z,22.65
2022-10-19T19:05:57.325Z,22.67
2022-10-19T19:07:01.453Z,22.63
2022-10-19T19:08:05.572Z,22.65
2022-10-19T19:09:09.712Z,22.62
2022-10-19T19:10:13.871Z,22.63
2022-10-19T19:11:18.017Z,22.63
2022-10-19T19:12:22.113Z,22.63
2022-10-19T19:13:26.232Z,22.56
2022-10-19T19:14:30.351Z,22.54
2022-10-19T19:15:34.477Z,22.53
2022-10-19T19:16:38.585Z,22.54
2022-10-19T19:17:42.705Z,22.58
2022-10-19T19:18:46.790Z,22.67
2022-10-19T19:19:50.892Z,22.68
2022-10-19T19:20:55.005Z,22.64
2022-10-19T19:21:59.133Z,22.69
2022-10-19T19:23:06.197Z,22.68
2022-10-19T19:24:10.375Z,22.67
2022-10-19T19:25:14.480Z,22.65
2022-10-19T19:26:18.626Z,22.64
2022-10-19T19:27:22.837Z,22.67
2022-10-19T19:28:35.423Z,22.66
2022-10-19T19:29:47.483Z,22.62
2022-10-19T19:30:51.569Z,22.66
2022-10-19T19:31:55.686Z,22.62
2022-10-19T19:32:59.783Z,22.6
2022-10-19T19:34:03.888Z,22.6
2022-10-19T19:35:08.006Z,22.56
2022-10-19T19:36:12.106Z,22.57
2022-10-19T19:37:16.258Z,22.63
2022-10-19T19:38:20.346Z,22.66
2022-10-19T19:39:24.476Z,22.71
2022-10-19T19:40:28.609Z,22.7
2022-10-19T19:41:32.729Z,22.69
2022-10-19T19:42:36.846Z,22.71
2022-10-19T19:43:40.967Z,22.75
2022-10-19T19:44:45.087Z,22.76
2022-10-19T19:45:49.236Z,22.76
2022-10-19T19:46:53.472Z,22.75
2022-10-19T19:47:57.602Z,22.74
2022-10-19T19:49:01.742Z,22.7
2022-10-19T19:50:05.834Z,22.7
2022-10-19T19:51:09.933Z,22.68
2022-10-19T19:52:14.133Z,22.69
2022-10-19T19:53:18.257Z,22.67
2022-10-19T19:54:22.367Z,22.65
2022-10-19T19:55:26.742Z,22.67
2022-10-19T19:56:30.883Z,22.69
2022-10-19T19:57:35.226Z,22.72
2022-10-19T19:58:40.419Z,22.69
2022-10-19T19:59:44.556Z,22.77
2022-10-19T20:00:48.707Z,22.83
2022-10-19T20:01:52.894Z,22.85
2022-10-19T20:02:57.203Z,22.86
2022-10-19T20:05:06.484Z,22.87
2022-10-19T20:06:10.596Z,22.86
2022-10-19T20:07:14.727Z,22.84
2022-10-19T20:08:18.831Z,22.83
2022-10-19T20:09:22.937Z,22.8
2022-10-19T20:10:27.049Z,22.8
2022-10-19T20:11:31.161Z,22.78
2022-10-19T20:12:35.252Z,22.72
2022-10-19T20:13:39.381Z,22.71
2022-10-19T20:14:43.545Z,22.74
2022-10-19T20:15:47.659Z,22.74
2022-10-19T20:16:51.772Z,22.7
2022-10-19T20:17:55.891Z,22.64
2022-10-19T20:18:59.975Z,22.63
2022-10-19T20:20:04.127Z,22.62
2022-10-19T20:21:08.238Z,22.6
2022-10-19T20:22:12.391Z,22.62
2022-10-19T20:23:16.634Z,22.6
2022-10-19T20:24:20.731Z,22.55
2022-10-19T20:25:24.860Z,22.55
2022-10-19T20:26:28.998Z,22.56
2022-10-19T20:27:33.421Z,22.56
2022-10-19T20:28:38.822Z,22.49
2022-10-19T20:29:42.965Z,22.51
2022-10-19T20:30:47.082Z,22.48
2022-10-19T20:31:51.181Z,22.47
2022-10-19T20:32:55.290Z,22.47
2022-10-19T20:33:59.414Z,22.45
2022-10-19T20:35:03.504Z,22.45
2022-10-19T20:36:07.629Z,22.45
2022-10-19T20:37:11.769Z,22.42
2022-10-19T20:38:15.893Z,22.43
2022-10-19T20:39:20.022Z,22.41
2022-10-19T20:40:24.169Z,22.41
2022-10-19T20:41:28.547Z,22.36
2022-10-19T20:42:32.942Z,22.35
2022-10-19T20:43:38.434Z,22.37
2022-10-19T20:44:42.552Z,22.38
2022-10-19T20:45:46.646Z,22.37
2022-10-19T20:46:50.746Z,22.37
2022-10-19T20:47:54.827Z,22.37
2022-10-19T20:48:58.933Z,22.37
2022-10-19T20:51:07.155Z,22.35
2022-10-19T20:52:11.367Z,22.35
2022-10-19T20:53:15.460Z,22.32
2022-10-19T20:54:19.569Z,22.33
2022-10-19T20:55:23.676Z,22.33
2022-10-19T20:56:27.780Z,22.33
2022-10-19T20:57:31.894Z,22.31
2022-10-19T20:58:35.978Z,22.29
2022-10-19T20:59:40.070Z,22.29
2022-10-19T21:00:44.154Z,22.29
2022-10-19T21:01:48.274Z,22.24
2022-10-19T21:02:52.524Z,22.23
2022-10-19T21:03:56.610Z,22.26
2022-10-19T21:05:00.700Z,22.25
2022-10-19T21:06:04.804Z,22.23
2022-10-19T21:07:08.909Z,22.19
2022-10-19T21:08:13.023Z,22.2
2022-10-19T21:09:17.383Z,22.2
2022-10-19T21:10:21.541Z,22.25
2022-10-19T21:11:25.643Z,22.24
2022-10-19T21:12:29.730Z,22.2
2022-10-19T21:13:33.885Z,22.19
2022-10-19T21:14:37.989Z,22.16
2022-10-19T21:15:42.125Z,22.18
2022-10-19T21:16:46.241Z,22.2
2022-10-19T21:17:50.345Z,22.19
2022-10-19T21:18:54.465Z,22.17
2022-10-19T21:19:58.553Z,22.17
2022-10-19T21:21:02.651Z,22.16
2022-10-19T21:22:06.764Z,22.15
2022-10-19T21:23:10.899Z,22.15
2022-10-19T21:24:15.138Z,22.15
2022-10-19T21:25:19.285Z,22.29
2022-10-19T21:26:23.415Z,22.31
2022-10-19T21:27:27.528Z,22.27
2022-10-19T21:28:31.660Z,22.19
2022-10-19T21:29:35.833Z,22.21
2022-10-19T21:30:39.949Z,22.19
2022-10-19T21:31:45.196Z,22.18
2022-10-19T21:32:52.504Z,22.2
2022-10-19T21:33:56.609Z,22.24
2022-10-19T21:35:00.746Z,22.2
2022-10-19T21:36:04.885Z,22.23
2022-10-19T21:37:08.991Z,22.17
2022-10-19T21:38:13.102Z,22.18
2022-10-19T21:39:17.222Z,22.18
2022-10-19T21:40:21.349Z,22.15
2022-10-19T21:41:26.333Z,22.14
2022-10-19T21:42:30.765Z,22.12
2022-10-19T21:43:34.870Z,22.06
2022-10-19T21:44:38.973Z,22.07
2022-10-19T21:45:43.077Z,22.06
2022-10-19T21:46:47.181Z,22.02
2022-10-19T21:47:51.311Z,22.06
2022-10-19T21:48:55.420Z,22.03
2022-10-19T21:49:59.560Z,22.05
2022-10-19T21:51:03.669Z,22.04
2022-10-19T21:52:08.497Z,22.04
2022-10-19T21:53:19.115Z,22
2022-10-19T21:54:23.275Z,22.04
2022-10-19T21:55:27.633Z,22.15
2022-10-19T21:56:31.734Z,22.08
2022-10-19T21:57:36.127Z,22.08
2022-10-19T21:58:40.987Z,22.04
2022-10-19T21:59:45.123Z,22
2022-10-19T22:00:49.253Z,21.96
2022-10-19T22:01:53.411Z,21.91
2022-10-19T22:02:57.812Z,21.89
2022-10-19T22:04:01.943Z,21.93
2022-10-19T22:05:06.031Z,21.93
2022-10-19T22:06:10.191Z,21.91
2022-10-19T22:07:14.350Z,21.91
2022-10-19T22:08:18.469Z,21.95
2022-10-19T22:09:22.590Z,21.93
2022-10-19T22:10:26.694Z,21.94
2022-10-19T22:11:30.796Z,21.92
2022-10-19T22:12:35.083Z,21.88
2022-10-19T22:13:40.361Z,21.93
2022-10-19T22:14:44.467Z,21.94
2022-10-19T22:15:48.603Z,21.92
2022-10-19T22:16:52.729Z,21.85
2022-10-19T22:17:56.876Z,21.84
2022-10-19T22:19:01.013Z,21.91
2022-10-19T22:20:05.111Z,21.88
2022-10-19T22:21:09.226Z,21.82
2022-10-19T22:22:13.344Z,21.86
2022-10-19T22:23:17.455Z,21.9
2022-10-19T22:24:21.575Z,21.91
2022-10-19T22:25:25.724Z,21.86
2022-10-19T22:26:29.869Z,21.83
2022-10-19T22:27:34.054Z,21.8
2022-10-19T22:28:38.196Z,21.82
2022-10-19T22:29:42.340Z,21.89
2022-10-19T22:30:46.451Z,21.9
2022-10-19T22:31:50.582Z,21.85
2022-10-19T22:32:54.732Z,21.84
2022-10-19T22:33:58.875Z,21.84
2022-10-19T22:35:03.039Z,21.84
2022-10-19T22:36:07.189Z,21.8
2022-10-19T22:37:11.308Z,21.82
2022-10-19T22:38:15.434Z,21.81
2022-10-19T22:39:19.561Z,21.75
2022-10-19T22:40:23.702Z,21.79
2022-10-19T22:41:27.820Z,21.76
2022-10-19T22:42:31.923Z,21.78
2022-10-19T22:43:37.066Z,21.77
2022-10-19T22:44:41.179Z,21.73
2022-10-19T22:45:45.278Z,21.64
2022-10-19T22:46:49.370Z,21.75
2022-10-19T22:47:53.514Z,21.71
2022-10-19T22:48:57.706Z,21.73
2022-10-19T22:50:02.065Z,21.67
2022-10-19T22:51:06.179Z,21.72
2022-10-19T22:52:10.289Z,21.67
2022-10-19T22:53:14.385Z,21.66
2022-10-19T22:54:18.529Z,21.71
2022-10-19T22:55:22.657Z,21.76
2022-10-19T22:56:26.765Z,21.73
2022-10-19T22:57:30.922Z,21.68
2022-10-19T22:58:35.030Z,21.68
2022-10-19T22:59:39.162Z,21.69
2022-10-19T23:00:43.281Z,21.7
2022-10-19T23:01:47.451Z,21.69
2022-10-19T23:02:51.774Z,21.69
2022-10-19T23:03:55.886Z,21.66
2022-10-19T23:05:00.039Z,21.68
2022-10-19T23:06:04.146Z,21.65
2022-10-19T23:07:08.311Z,21.64
2022-10-19T23:08:13.448Z,21.64
2022-10-19T23:09:17.550Z,21.63
2022-10-19T23:10:21.672Z,21.64
2022-10-19T23:11:25.793Z,21.61
2022-10-19T23:12:29.897Z,21.64
2022-10-19T23:13:34.063Z,21.64
2022-10-19T23:14:38.187Z,21.64
2022-10-19T23:15:43.752Z,21.63
2022-10-19T23:16:48.129Z,21.63
2022-10-19T23:17:52.306Z,21.65
2022-10-19T23:18:56.449Z,21.64
2022-10-19T23:20:00.548Z,21.59
2022-10-19T23:21:04.708Z,21.57
2022-10-19T23:22:08.817Z,21.6
2022-10-19T23:23:12.933Z,21.58
2022-10-19T23:24:17.085Z,21.53
2022-10-19T23:25:21.260Z,21.52
2022-10-19T23:26:25.547Z,21.56
2022-10-19T23:27:29.662Z,21.56
2022-10-19T23:28:33.801Z,21.55
2022-10-19T23:29:37.958Z,21.54
2022-10-19T23:30:42.076Z,21.58
2022-10-19T23:31:46.199Z,21.61
2022-10-19T23:32:50.322Z,21.62
2022-10-19T23:33:54.496Z,21.61
2022-10-19T23:34:58.597Z,21.58
2022-10-19T23:36:02.706Z,21.51
2022-10-19T23:37:06.819Z,21.54
2022-10-19T23:38:10.966Z,21.53
2022-10-19T23:39:15.092Z,21.51
2022-10-19T23:40:19.192Z,21.51
2022-10-19T23:41:23.306Z,21.47
2022-10-19T23:42:27.439Z,21.5
2022-10-19T23:43:31.647Z,21.5
2022-10-19T23:44:36.067Z,21.5
2022-10-19T23:45:40.167Z,21.47
2022-10-19T23:46:44.320Z,21.46
2022-10-19T23:47:48.448Z,21.47
2022-10-19T23:48:52.631Z,21.5
2022-10-19T23:49:56.773Z,21.49
2022-10-19T23:51:00.868Z,21.48
2022-10-19T23:52:05.014Z,21.45
2022-10-19T23:53:09.190Z,21.48
2022-10-19T23:54:13.331Z,21.43
2022-10-19T23:55:17.432Z,21.44
2022-10-19T23:56:21.551Z,21.48
2022-10-19T23:57:25.669Z,21.48
2022-10-19T23:58:29.761Z,21.47
2022-10-19T23:59:33.864Z,21.46
